createdAt,value
2023-01-06T00:00:00.913Z,332.2
2023-01-06T00:05:00.963Z,340.9
2023-01-06T00:10:00.796Z,336.2
2023-01-06T00:15:00.869Z,307.9
2023-01-06T00:20:00.965Z,326.2
2023-01-06T00:25:00.883Z,352.5
2023-01-06T00:30:00.876Z,330.7
2023-01-06T00:35:00.950Z,359.1
2023-01-06T00:40:00.949Z,400.7
2023-01-06T00:45:00.865Z,358.9
2023-01-06T00:50:00.799Z,306.9
2023-01-06T00:55:00.874Z,329.0
2023-01-06T01:00:00.774Z,282.2
2023-01-06T01:05:00.816Z,226.4
2023-01-06T01:10:00.732Z,242.4
2023-01-06T01:15:00.910Z,267.0
2023-01-06T01:20:01.102Z,273.2
2023-01-06T01:25:00.836Z,272.9
2023-01-06T01:30:00.737Z,277.6
2023-01-06T01:35:00.787Z,294.0
2023-01-06T01:40:01.067Z,291.4
2023-01-06T01:50:00.749Z,235.8
2023-01-06T01:55:00.971Z,232.5
2023-01-06T02:00:01.985Z,201.6
2023-01-06T02:05:00.947Z,214.9
2023-01-06T02:10:00.928Z,204.6
2023-01-06T02:30:01.480Z,160.0
2023-01-06T02:50:01.447Z,136.2
2023-01-06T03:10:01.863Z,140.4
2023-01-06T03:15:01.800Z,148.2
2023-01-06T03:20:01.641Z,155.5
2023-01-06T03:25:01.681Z,164.1
2023-01-06T03:40:01.637Z,191.5
2023-01-06T04:00:01.628Z,221.8
2023-01-06T04:05:01.671Z,222.0
2023-01-06T04:10:01.422Z,197.0
2023-01-06T04:15:06.595Z,186.0
2023-01-06T04:20:01.407Z,181.9
2023-01-06T04:25:01.462Z,170.5
2023-01-06T04:30:01.558Z,163.2
2023-01-06T04:35:01.719Z,161.2
2023-01-06T04:40:06.395Z,158.2
2023-01-06T04:45:01.646Z,208.0
2023-01-06T04:50:01.424Z,205.9
2023-01-06T04:55:01.655Z,200.2
2023-01-06T05:00:01.381Z,202.1
2023-01-06T05:05:02.481Z,205.1
2023-01-06T05:10:01.363Z,156.1
2023-01-06T05:15:01.560Z,162.5
2023-01-06T05:20:02.471Z,168.0
2023-01-06T05:25:01.495Z,181.9
2023-01-06T05:30:06.495Z,176.5
2023-01-06T05:35:01.522Z,170.8
2023-01-06T05:40:01.370Z,161.1
2023-01-06T05:45:01.455Z,159.3
2023-01-06T05:50:01.550Z,160.0
2023-01-06T05:55:01.552Z,181.0
2023-01-06T06:00:06.367Z,203.3
2023-01-06T06:05:01.500Z,225.1
2023-01-06T06:10:01.523Z,239.4
2023-01-06T06:15:01.480Z,247.1
2023-01-06T06:20:01.501Z,239.9
2023-01-06T06:25:02.552Z,223.0
2023-01-06T06:30:01.652Z,209.9
2023-01-06T06:35:01.405Z,198.3
2023-01-06T06:40:01.415Z,196.0
2023-01-06T06:45:01.392Z,192.8
2023-01-06T06:50:01.754Z,195.8
2023-01-06T07:10:01.862Z,153.2
2023-01-06T07:15:01.779Z,168.9
2023-01-06T07:20:01.695Z,165.3
2023-01-06T07:25:02.686Z,186.4
2023-01-06T07:30:01.763Z,181.5
2023-01-06T07:35:01.775Z,186.0
2023-01-06T07:40:02.661Z,184.7
2023-01-06T07:45:01.823Z,190.3
2023-01-06T07:50:01.840Z,180.2
2023-01-06T07:55:01.778Z,185.9
2023-01-06T08:00:01.659Z,195.2
2023-01-06T08:05:01.724Z,201.2
2023-01-06T08:10:02.317Z,214.9
2023-01-06T08:15:01.717Z,203.6
2023-01-06T08:20:07.175Z,194.7
2023-01-06T08:25:01.776Z,176.6
2023-01-06T08:30:01.879Z,159.7
2023-01-06T08:35:01.864Z,138.9
2023-01-06T08:40:01.670Z,140.3
2023-01-06T08:45:03.253Z,140.3
2023-01-06T08:50:01.877Z,142.2
2023-01-06T08:55:01.790Z,145.8
2023-01-06T09:00:01.734Z,140.1
2023-01-06T09:05:01.870Z,137.8
2023-01-06T09:10:10.209Z,134.7
2023-01-06T09:30:01.485Z,117.6
2023-01-06T09:35:01.372Z,114.2
2023-01-06T09:40:01.249Z,112.9
2023-01-06T09:45:01.433Z,118.7
2023-01-06T09:50:01.454Z,119.0
2023-01-06T09:55:01.203Z,125.7
2023-01-06T10:00:01.145Z,132.8
2023-01-06T10:05:01.242Z,163.1
2023-01-06T10:20:01.044Z,198.4
2023-01-06T10:40:01.476Z,191.2
2023-01-06T10:45:01.426Z,187.2
2023-01-06T10:50:01.244Z,181.9
2023-01-06T10:55:01.361Z,180.3
2023-01-06T11:00:01.404Z,170.1
2023-01-06T11:05:01.551Z,160.9
2023-01-06T11:10:01.358Z,151.1
2023-01-06T11:15:02.534Z,143.8
2023-01-06T11:20:01.473Z,135.8
2023-01-06T11:25:01.543Z,137.1
2023-01-06T11:30:01.365Z,135.8
2023-01-06T11:50:01.658Z,98.4
2023-01-06T11:55:01.501Z,100.1
2023-01-06T12:10:00.972Z,131.6
2023-01-06T12:15:02.692Z,121.8
2023-01-06T12:20:00.823Z,120.1
2023-01-06T12:40:06.612Z,130.2
2023-01-06T12:45:01.618Z,122.2
2023-01-06T13:00:01.139Z,111.2
2023-01-06T13:05:00.994Z,107.5
2023-01-06T13:10:00.939Z,117.3
2023-01-06T13:15:01.031Z,117.6
2023-01-06T13:20:01.168Z,122.4
2023-01-06T13:25:01.180Z,126.9
2023-01-06T13:30:00.977Z,136.6
2023-01-06T13:50:01.916Z,149.2
2023-01-06T13:55:01.766Z,132.6
2023-01-06T14:00:01.671Z,138.6
2023-01-06T14:20:06.479Z,133.8
2023-01-06T14:40:02.065Z,137.0
2023-01-06T14:45:02.307Z,135.2
2023-01-06T14:50:01.660Z,137.5
2023-01-06T14:55:01.791Z,135.6
2023-01-06T15:00:01.776Z,140.3
2023-01-06T15:05:01.770Z,141.4
2023-01-06T15:10:01.711Z,143.3
2023-01-06T15:30:01.753Z,161.4
2023-01-06T15:35:01.553Z,157.1
2023-01-06T15:40:01.596Z,163.7
2023-01-06T15:45:01.568Z,172.0
2023-01-06T15:50:01.675Z,176.9
2023-01-06T15:55:01.629Z,174.1
2023-01-06T16:00:01.565Z,177.4
2023-01-06T16:05:01.654Z,180.4
2023-01-06T16:20:01.666Z,216.4
2023-01-06T16:25:01.272Z,189.1
2023-01-06T16:30:06.204Z,184.8
2023-01-06T16:35:01.265Z,182.2
2023-01-06T16:40:01.389Z,181.7
2023-01-06T16:45:01.986Z,174.7
2023-01-06T16:50:01.258Z,178.4
2023-01-06T16:55:01.313Z,172.1
2023-01-06T17:00:01.707Z,169.7
2023-01-06T17:05:01.310Z,169.0
2023-01-06T17:10:01.309Z,166.2
2023-01-06T17:15:01.242Z,168.1
2023-01-06T17:20:01.314Z,174.4
2023-01-06T17:25:01.524Z,181.4
2023-01-06T17:30:01.182Z,188.2
2023-01-06T17:35:01.298Z,189.8
2023-01-06T17:40:01.293Z,182.7
2023-01-06T17:45:01.338Z,176.7
2023-01-06T17:50:01.201Z,167.9
2023-01-06T18:10:01.862Z,199.4
2023-01-06T18:15:01.663Z,196.9
2023-01-06T18:30:01.321Z,167.0
2023-01-06T18:35:01.379Z,168.9
2023-01-06T18:40:01.487Z,164.7
2023-01-06T18:45:01.106Z,159.2
2023-01-06T18:50:05.641Z,162.7
2023-01-06T19:10:01.869Z,163.8
2023-01-06T19:15:01.814Z,155.4
2023-01-06T19:30:01.415Z,210.2
2023-01-06T19:50:01.873Z,154.4
2023-01-06T19:55:01.715Z,153.7
2023-01-06T20:10:01.820Z,153.6
2023-01-06T20:15:01.181Z,169.5
2023-01-06T20:20:01.071Z,168.7
2023-01-06T20:25:01.094Z,178.6
2023-01-06T20:30:01.142Z,174.7
2023-01-06T20:35:01.159Z,175.1
2023-01-06T20:40:01.030Z,176.1
2023-01-06T20:45:01.151Z,202.4
2023-01-06T20:50:01.149Z,197.3
2023-01-06T20:55:01.080Z,207.3
2023-01-06T21:00:01.325Z,216.1
2023-01-06T21:05:01.159Z,216.5
2023-01-06T21:10:01.207Z,194.0
2023-01-06T21:15:01.605Z,196.4
2023-01-06T21:20:01.205Z,192.1
2023-01-06T21:25:01.107Z,186.0
2023-01-06T21:30:07.552Z,191.3
2023-01-06T21:35:01.198Z,187.3
2023-01-06T21:40:01.064Z,188.5
2023-01-06T21:45:07.356Z,185.2
2023-01-06T21:50:01.187Z,186.0
2023-01-06T21:55:01.212Z,179.4
2023-01-06T22:00:01.132Z,183.3
2023-01-06T22:05:01.204Z,175.5
2023-01-06T22:10:01.197Z,177.0
2023-01-06T22:15:01.110Z,215.0
2023-01-06T22:20:06.024Z,220.0
2023-01-06T22:25:01.137Z,223.1
2023-01-06T22:30:01.169Z,228.5
2023-01-06T22:35:01.197Z,230.5
2023-01-06T22:40:01.070Z,189.2
2023-01-06T22:45:01.083Z,182.0
2023-01-06T22:50:01.131Z,178.0
2023-01-06T22:55:01.179Z,175.4
2023-01-06T23:00:00.992Z,170.5
2023-01-06T23:05:01.125Z,174.0
2023-01-06T23:10:01.168Z,172.3
2023-01-06T23:15:01.740Z,169.1
2023-01-06T23:20:01.204Z,165.7
2023-01-06T23:25:01.203Z,155.2
2023-01-06T23:30:01.206Z,147.1
2023-01-06T23:35:01.173Z,138.8
2023-01-06T23:40:01.532Z,129.3
2023-01-06T23:45:01.247Z,122.7
2023-01-06T23:50:01.310Z,124.8
2023-01-06T23:55:06.302Z,123.8
